Aeroporto :
LOGIN :

Iscrizione | Disclaimer

   EN    FR    IT 

 










Sommario :    VFR   VFR Marginale   IFR   IFR Intensivo   IFR Molto Intensivo
Visibilità : 
Base nubi : 
>= 8 km
>= 3000ft
5 / 8 km
1000 / 3000 ft
1500m / 5 km
500 / 1000 ft
800 / 1500m
200 / 500 ft
< 800m
< 200 ft
Simboli :   Temporali  Nebbia  Neve Forte  Precipitazioni Forti  Vento > 20 kt
SIGMETs :   Varie  Temporali  Ghiacco  Turbolenza  Onda orograficha  Ceneri Vulcaniche






- Altitudine del aeroporto : 1084 ft
- Codice IATA : EPL


LFSG - Épinal-Mirecourt

ULTIMO METAR :
  • 141830Z AUTO 03007KT 9999 FEW008 BKN072 OVC082 04/03 Q0999

METARs OBSOLETI :
  • 141800Z AUTO 01006KT 9999 -RA NSC 04/03 Q0999
  • 141730Z AUTO 36006KT 9999 -RA FEW037 SCT050 BKN068 04/03 Q0999
  • 141700Z AUTO 02006KT 9999 -RA ///TCU 04/03 Q0999
  • 141630Z AUTO 01006KT 9999 -RA FEW029 OVC040 04/03 Q0999
  • 141600Z AUTO 08003KT 9999 RA BKN014 OVC035 04/04 Q1000

TAF N/A



MetMap, La meteo Aeronautica in un colpo d'occhio ! - Copyright ORBIFLY Dicembre 2007 - Disclaimer

ORBIFLY MET'MAP TEAM :

Programmazione e sviluppo : Alexandra Zaïnal
Concezione e sviluppo : Baudouin d'Aumeries
Co-Programmazione e sviluppo : Marc-Olivier Méhu
Supporto tecnico e logistico : Manuel Goepfert
Aiuto per la traduzione : Arnaldo La Scala

Contatto : metmap@orbifly.com




FONTI E CREDITI :

   NOAA